createdAt,value
2022-08-22T00:00:05.313Z,47.4
2022-08-22T00:02:02.436Z,47.4
2022-08-22T00:02:43.482Z,45.5
2022-08-22T00:02:49.791Z,47.2
2022-08-22T00:03:12.110Z,48.8
2022-08-22T00:04:12.551Z,47.4
2022-08-22T00:06:05.869Z,47.4
2022-08-22T00:08:06.378Z,47.8
2022-08-22T00:10:01.242Z,47.8
2022-08-22T00:12:07.523Z,47.8
2022-08-22T00:14:04.453Z,48.5
2022-08-22T00:16:05.874Z,48
2022-08-22T00:18:09.034Z,48
2022-08-22T00:20:06.697Z,48
2022-08-22T00:22:04.367Z,48.6
2022-08-22T00:24:12.770Z,48.6
2022-08-22T00:26:03.727Z,48.8
2022-08-22T00:28:05.350Z,49.4
2022-08-22T00:30:07.611Z,48.8
2022-08-22T00:32:10.297Z,48.8
2022-08-22T00:34:06.489Z,48.8
2022-08-22T00:36:12.285Z,48.5
2022-08-22T00:38:06.451Z,48.8
2022-08-22T00:40:19.994Z,48.5
2022-08-22T00:42:32.123Z,48.5
2022-08-22T00:44:22.200Z,49.3
2022-08-22T00:46:21.532Z,49.9
2022-08-22T00:48:21.118Z,50.2
2022-08-22T00:50:25.410Z,49.3
2022-08-22T00:52:23.438Z,51.8
2022-08-22T00:54:17.709Z,52.9
2022-08-22T00:56:27.223Z,51.8
2022-08-22T00:58:34.797Z,52.1
2022-08-22T01:00:12.106Z,51.2
2022-08-22T01:02:22.982Z,50.1
2022-08-22T01:04:29.928Z,51.4
2022-08-22T01:06:21.356Z,54.3
2022-08-22T01:08:22.945Z,51.4
2022-08-22T01:10:22.062Z,49.8
2022-08-22T01:12:19.271Z,52.1
2022-08-22T01:14:35.025Z,51.5
2022-08-22T01:16:33.811Z,49.7
2022-08-22T01:18:32.992Z,50.2
2022-08-22T01:20:33.621Z,51.5
2022-08-22T01:22:30.719Z,52.3
2022-08-22T01:24:39.142Z,52.3
2022-08-22T01:26:41.164Z,52.3
2022-08-22T01:28:33.156Z,52
2022-08-22T01:30:31.557Z,51.8
2022-08-22T01:32:38.890Z,52.4
2022-08-22T01:34:38.095Z,53.4
2022-08-22T01:36:40.018Z,52.9
2022-08-22T01:38:33.652Z,52.9
2022-08-22T01:40:37.376Z,53.2
2022-08-22T01:42:36.398Z,53.9
2022-08-22T01:44:28.903Z,53.1
2022-08-22T01:46:29.344Z,54.2
2022-08-22T01:48:19.750Z,53.5
2022-08-22T01:50:24.901Z,54.2
2022-08-22T01:52:20.038Z,55.5
2022-08-22T01:54:29.375Z,55.5
2022-08-22T01:56:20.204Z,54.7
2022-08-22T01:58:19.651Z,55.5
2022-08-22T02:00:18.715Z,55.5
2022-08-22T02:02:31.530Z,56.7
2022-08-22T02:04:27.376Z,56.7
2022-08-22T02:06:28.552Z,56.2
2022-08-22T02:08:27.364Z,56.2
2022-08-22T02:10:24.628Z,57.2
2022-08-22T02:12:29.398Z,56.1
2022-08-22T02:14:32.795Z,57.1
2022-08-22T02:16:31.260Z,58
2022-08-22T02:18:25.879Z,55.2
2022-08-22T02:20:24.778Z,56.5
2022-08-22T02:22:32.142Z,56.4
2022-08-22T02:24:28.138Z,57.5
2022-08-22T02:26:25.180Z,57.1
2022-08-22T02:28:42.407Z,57.1
2022-08-22T02:30:27.633Z,56.5
2022-08-22T02:32:27.514Z,56.5
2022-08-22T02:34:34.530Z,56.3
2022-08-22T02:36:28.655Z,56.8
2022-08-22T02:38:29.005Z,56.8
2022-08-22T02:40:29.880Z,57
2022-08-22T02:42:28.485Z,55.8
2022-08-22T02:44:29.472Z,56
2022-08-22T02:46:29.595Z,56.2
2022-08-22T02:48:36.083Z,56.2
2022-08-22T02:50:33.955Z,56.9
2022-08-22T02:52:28.967Z,56.7
2022-08-22T02:54:34.865Z,56.4
2022-08-22T02:56:31.651Z,56.4
2022-08-22T02:58:33.901Z,57.1
2022-08-22T03:00:32.682Z,57.8
2022-08-22T03:02:32.882Z,57.8
2022-08-22T03:04:45.126Z,57.5
2022-08-22T03:06:35.918Z,58.4
2022-08-22T03:08:30.125Z,57.9
2022-08-22T03:10:31.658Z,58.3
2022-08-22T03:12:37.542Z,57.2
2022-08-22T03:14:34.852Z,57.2
2022-08-22T03:16:35.269Z,57
2022-08-22T03:18:42.597Z,57
2022-08-22T03:20:42.309Z,57
2022-08-22T03:22:40.779Z,57
2022-08-22T03:24:36.711Z,57
2022-08-22T03:26:40.377Z,56.9
2022-08-22T03:28:33.205Z,56.9
2022-08-22T03:30:36.979Z,56
2022-08-22T03:32:48.701Z,56.1
2022-08-22T03:34:31.318Z,57
2022-08-22T03:36:34.094Z,56.8
2022-08-22T03:38:47.105Z,55.8
2022-08-22T03:40:48.715Z,56.5
2022-08-22T03:42:58.194Z,56.5
2022-08-22T03:44:58.425Z,56.5
2022-08-22T03:46:50.975Z,56.5
2022-08-22T03:49:00.953Z,55.1
2022-08-22T03:51:03.318Z,56.3
2022-08-22T03:52:59.816Z,55.8
2022-08-22T03:54:57.648Z,55.8
2022-08-22T03:57:07.587Z,56.3
2022-08-22T03:59:01.053Z,55.4
2022-08-22T04:00:59.248Z,56.2
2022-08-22T04:03:03.001Z,55.3
2022-08-22T04:04:57.298Z,54.2
2022-08-22T04:07:04.068Z,54.2
2022-08-22T04:08:54.771Z,53.5
2022-08-22T04:10:55.803Z,54
2022-08-22T04:12:58.472Z,55.2
2022-08-22T04:14:55.352Z,55.9
2022-08-22T04:17:04.727Z,56.5
2022-08-22T04:19:08.027Z,56
2022-08-22T04:21:05.461Z,54.5
2022-08-22T04:22:59.655Z,56.9
2022-08-22T04:24:52.070Z,55
2022-08-22T04:26:46.174Z,56.5
2022-08-22T04:28:45.974Z,56.5
2022-08-22T04:30:48.063Z,56.3
2022-08-22T04:32:45.110Z,55.6
2022-08-22T04:34:46.615Z,55.6
2022-08-22T04:36:46.345Z,56.4
2022-08-22T04:38:49.695Z,57.6
2022-08-22T04:40:49.173Z,57.6
2022-08-22T04:42:50.981Z,57.7
2022-08-22T04:44:51.441Z,57.7
2022-08-22T04:46:51.857Z,57.7
2022-08-22T04:49:01.930Z,58.7
2022-08-22T04:50:52.834Z,58.7
2022-08-22T04:53:02.345Z,58.7
2022-08-22T04:54:57.091Z,58.5
2022-08-22T04:57:00.815Z,58.5
2022-08-22T04:58:55.928Z,58.5
2022-08-22T05:00:59.971Z,57.4
2022-08-22T05:02:51.782Z,57.2
2022-08-22T05:04:56.386Z,57.1
2022-08-22T05:07:02.261Z,57.4
2022-08-22T05:08:53.788Z,57.4
2022-08-22T05:10:51.256Z,56.7
2022-08-22T05:13:05.430Z,57.7
2022-08-22T05:14:54.608Z,58.2
2022-08-22T05:16:54.955Z,58.2
2022-08-22T05:18:56.017Z,58.7
2022-08-22T05:20:53.934Z,58.7
2022-08-22T05:22:58.351Z,58.2
2022-08-22T05:24:59.138Z,58.2
2022-08-22T05:26:56.675Z,58.3
2022-08-22T05:28:59.360Z,56.5
2022-08-22T05:30:55.999Z,55.8
2022-08-22T05:33:05.154Z,57.3
2022-08-22T05:34:59.271Z,54.9
2022-08-22T05:36:57.842Z,54.9
2022-08-22T05:38:58.502Z,53.3
2022-08-22T05:41:01.305Z,52.2
2022-08-22T05:42:58.132Z,52.5
2022-08-22T05:44:59.969Z,54
2022-08-22T05:47:02.716Z,54.8
2022-08-22T05:49:00.973Z,53.8
2022-08-22T05:51:11.164Z,53.8
2022-08-22T05:53:05.009Z,54.5
2022-08-22T05:55:04.986Z,54.5
2022-08-22T05:57:08.693Z,54.6
2022-08-22T05:59:08.164Z,53.9
2022-08-22T06:01:22.118Z,53.9
2022-08-22T06:03:12.328Z,53.9
2022-08-22T06:05:09.866Z,54.4
2022-08-22T06:07:07.500Z,55.2
2022-08-22T06:09:07.927Z,55.2
2022-08-22T06:11:08.231Z,55.2
2022-08-22T06:13:11.408Z,55.8
2022-08-22T06:15:13.630Z,55.8
2022-08-22T06:17:08.651Z,55.8
2022-08-22T06:19:05.340Z,55.8
2022-08-22T06:21:10.576Z,55
2022-08-22T06:23:07.526Z,55
2022-08-22T06:25:12.955Z,54.3
2022-08-22T06:27:12.277Z,52.9
2022-08-22T06:29:09.147Z,50.8
2022-08-22T06:31:15.098Z,50.2
2022-08-22T06:33:12.408Z,49.1
2022-08-22T06:35:16.497Z,49.1
2022-08-22T06:37:14.658Z,49.8
2022-08-22T06:39:18.053Z,48.1
2022-08-22T06:41:10.333Z,48.1
2022-08-22T06:43:11.498Z,45.4
2022-08-22T06:45:16.677Z,45.6
2022-08-22T06:47:18.382Z,45.6
2022-08-22T06:49:14.120Z,46.3
2022-08-22T06:51:16.130Z,45.6
2022-08-22T06:53:18.068Z,44.2
2022-08-22T06:55:14.847Z,44.2
2022-08-22T06:57:29.549Z,44.2
2022-08-22T06:59:18.929Z,43.2
2022-08-22T07:01:19.947Z,42.3
2022-08-22T07:03:24.747Z,41.6
2022-08-22T07:05:21.490Z,42.3
2022-08-22T07:07:19.604Z,41.5
2022-08-22T07:09:23.989Z,42.7
2022-08-22T07:11:24.705Z,43.6
2022-08-22T07:13:19.957Z,44.2
2022-08-22T07:15:31.329Z,44.2
2022-08-22T07:17:23.989Z,44.1
2022-08-22T07:19:24.863Z,43
2022-08-22T07:21:25.471Z,43.4
2022-08-22T07:23:30.222Z,43.9
2022-08-22T07:25:24.722Z,43.3
2022-08-22T07:27:39.690Z,42.7
2022-08-22T07:29:30.724Z,43.3
2022-08-22T07:31:32.818Z,41.9
2022-08-22T07:33:38.330Z,41.9
2022-08-22T07:35:29.858Z,41.8
2022-08-22T07:37:36.661Z,42.1
2022-08-22T07:39:33.988Z,42.1
2022-08-22T07:41:37.393Z,41.4
2022-08-22T07:43:32.592Z,40.3
2022-08-22T07:45:36.735Z,41
2022-08-22T07:47:49.565Z,40
2022-08-22T07:49:36.040Z,39.4
2022-08-22T07:51:34.483Z,40.7
2022-08-22T07:53:40.832Z,40.3
2022-08-22T07:55:32.623Z,40.8
2022-08-22T07:57:36.783Z,41.6
2022-08-22T07:59:36.320Z,41.6
2022-08-22T08:01:34.369Z,41.6
2022-08-22T08:03:34.839Z,41.6
2022-08-22T08:05:37.743Z,41.6
2022-08-22T08:07:39.911Z,41.7
2022-08-22T08:09:40.574Z,41.7
2022-08-22T08:11:41.117Z,42.1
2022-08-22T08:13:45.168Z,42.9
2022-08-22T08:15:38.974Z,42.9
2022-08-22T08:17:39.838Z,42.7
2022-08-22T08:19:41.810Z,43.4
2022-08-22T08:21:46.096Z,43.9
2022-08-22T08:23:45.234Z,43.9
2022-08-22T08:25:53.452Z,43.1
2022-08-22T08:27:41.679Z,43
2022-08-22T08:29:53.040Z,43
2022-08-22T08:31:44.849Z,43
2022-08-22T08:33:47.009Z,42.3
2022-08-22T08:36:03.015Z,43
2022-08-22T08:37:47.790Z,43.8
2022-08-22T08:39:49.303Z,44.4
2022-08-22T08:42:15.377Z,44.4
2022-08-22T08:43:59.562Z,44.4
2022-08-22T08:46:15.509Z,43.9
2022-08-22T08:48:08.483Z,43.2
2022-08-22T08:50:03.332Z,43.2
2022-08-22T08:52:08.681Z,43.2
2022-08-22T08:54:06.776Z,43.2
2022-08-22T08:55:57.292Z,43.1
2022-08-22T08:56:21.804Z,43.1
2022-08-22T08:56:35.212Z,43.1
2022-08-22T08:58:06.828Z,43.1
2022-08-22T09:00:02.530Z,42.3
2022-08-22T09:02:07.266Z,42.3
2022-08-22T09:04:20.365Z,42.3
2022-08-22T09:06:10.816Z,41.2
2022-08-22T09:08:22.850Z,41.2
2022-08-22T09:10:19.193Z,40.4
2022-08-22T09:12:22.747Z,40.9
2022-08-22T09:14:09.928Z,40.1
2022-08-22T09:16:11.560Z,40.2
2022-08-22T09:18:13.303Z,40.2
2022-08-22T09:20:17.730Z,40.2
2022-08-22T09:22:14.197Z,40.2
2022-08-22T09:24:26.315Z,39.8
2022-08-22T09:26:01.348Z,39.2
2022-08-22T09:28:03.975Z,39.2
2022-08-22T09:30:07.722Z,39.2
2022-08-22T09:32:07.387Z,38.9
2022-08-22T09:34:09.506Z,38.9
2022-08-22T09:36:05.106Z,39.4
2022-08-22T09:38:25.150Z,38
2022-08-22T09:40:15.149Z,38.6
2022-08-22T09:42:10.812Z,38.6
2022-08-22T09:44:15.511Z,38.6
2022-08-22T09:46:12.093Z,39.4
2022-08-22T09:48:14.902Z,39.3
2022-08-22T09:50:12.804Z,39.3
2022-08-22T09:52:15.582Z,38.6
2022-08-22T09:54:20.721Z,39.2
2022-08-22T09:56:11.587Z,39.3
2022-08-22T09:58:18.680Z,37.9
2022-08-22T10:00:18.093Z,37.9
2022-08-22T10:02:23.029Z,37.9
2022-08-22T10:04:35.570Z,38.4
2022-08-22T10:06:17.136Z,38.5
2022-08-22T10:08:20.266Z,38.5
2022-08-22T10:10:26.558Z,38.1
2022-08-22T10:12:18.643Z,37.6
2022-08-22T10:14:22.327Z,36.9
2022-08-22T10:16:20.479Z,36.9
2022-08-22T10:18:28.272Z,37.8
2022-08-22T10:20:22.798Z,37.8
2022-08-22T10:22:22.561Z,38.4
2022-08-22T10:24:27.212Z,37.6
2022-08-22T10:26:39.125Z,37.8
2022-08-22T10:28:24.378Z,38.2
2022-08-22T10:30:19.526Z,37.6
2022-08-22T10:32:28.116Z,37.6
2022-08-22T10:34:23.038Z,38.2
2022-08-22T10:36:26.409Z,38.2
2022-08-22T10:38:25.219Z,38.2
2022-08-22T10:40:27.060Z,38.8
2022-08-22T10:42:28.443Z,38.9
2022-08-22T10:44:29.655Z,38.2
2022-08-22T10:46:28.160Z,38
2022-08-22T10:48:31.163Z,38
2022-08-22T10:50:31.162Z,38
2022-08-22T10:52:26.919Z,37.7
2022-08-22T10:54:34.756Z,38.7
2022-08-22T10:56:33.340Z,38.4
2022-08-22T10:58:27.354Z,37.9
2022-08-22T11:00:46.430Z,39.7
2022-08-22T11:02:42.164Z,39.7
2022-08-22T11:04:47.638Z,40.3
2022-08-22T11:06:34.424Z,41
2022-08-22T11:08:47.320Z,41
2022-08-22T11:10:40.333Z,41
2022-08-22T11:12:35.070Z,41
2022-08-22T11:15:00.443Z,41
2022-08-22T11:16:47.695Z,41.5
2022-08-22T11:18:57.773Z,41.8
2022-08-22T11:20:43.212Z,41.3
2022-08-22T11:22:41.875Z,40.7
2022-08-22T11:25:04.395Z,40.7
2022-08-22T11:26:47.328Z,39.9
2022-08-22T11:28:56.027Z,39.9
2022-08-22T11:30:45.898Z,39.9
2022-08-22T11:32:40.231Z,39.9
2022-08-22T11:34:47.784Z,40.4
2022-08-22T11:36:41.502Z,40.6
2022-08-22T11:38:44.249Z,40.6
2022-08-22T11:40:44.735Z,40.6
2022-08-22T11:42:47.800Z,40.6
2022-08-22T11:44:50.897Z,40.6
2022-08-22T11:46:42.349Z,40.4
2022-08-22T11:48:48.874Z,40.4
2022-08-22T11:50:45.209Z,40.9
2022-08-22T11:52:59.752Z,40.9
2022-08-22T11:55:02.192Z,40.9
2022-08-22T11:56:47.469Z,41.1
2022-08-22T11:58:52.697Z,41.1
2022-08-22T12:00:53.321Z,41.1
2022-08-22T12:02:59.661Z,41.1
2022-08-22T12:04:50.564Z,41.1
2022-08-22T12:06:54.555Z,41.7
2022-08-22T12:09:12.031Z,41.7
2022-08-22T12:10:54.178Z,41.7
2022-08-22T12:12:58.384Z,41.7
2022-08-22T12:14:56.292Z,42.4
2022-08-22T12:17:02.421Z,42.3
2022-08-22T12:18:55.558Z,43
2022-08-22T12:21:15.918Z,43
2022-08-22T12:23:06.895Z,43
2022-08-22T12:25:05.244Z,43.8
2022-08-22T12:27:00.792Z,43.5
2022-08-22T12:29:15.810Z,43.2
2022-08-22T12:31:04.347Z,43.2
2022-08-22T12:33:13.512Z,43.2
2022-08-22T12:35:13.862Z,43.2
2022-08-22T12:37:05.270Z,43.8
2022-08-22T12:39:14.196Z,42.9
2022-08-22T12:41:13.154Z,42.9
2022-08-22T12:43:12.059Z,42.9
2022-08-22T12:45:14.549Z,43.5
2022-08-22T12:47:10.791Z,43.8
2022-08-22T12:49:08.666Z,42.8
2022-08-22T12:51:17.565Z,43.4
2022-08-22T12:53:20.040Z,43.4
2022-08-22T12:55:18.577Z,44
2022-08-22T12:57:23.784Z,43
2022-08-22T12:59:19.613Z,43
2022-08-22T13:01:05.331Z,43
2022-08-22T13:03:06.377Z,42.3
2022-08-22T13:05:10.000Z,41.6
2022-08-22T13:07:09.103Z,42
2022-08-22T13:09:11.195Z,42
2022-08-22T13:11:10.021Z,42.2
2022-08-22T13:13:12.115Z,41.5
2022-08-22T13:15:25.302Z,42.2
2022-08-22T13:17:24.399Z,41.4
2022-08-22T13:19:13.498Z,41.4
2022-08-22T13:21:14.494Z,42
2022-08-22T13:23:13.556Z,41.3
2022-08-22T13:25:25.397Z,42.1
2022-08-22T13:27:14.339Z,41.9
2022-08-22T13:29:39.066Z,41.9
2022-08-22T13:31:20.360Z,41.9
2022-08-22T13:33:13.825Z,41.9
2022-08-22T13:35:20.270Z,41.6
2022-08-22T13:37:15.949Z,41.9
2022-08-22T13:39:25.221Z,41.7
2022-08-22T13:41:18.758Z,42.2
2022-08-22T13:43:19.850Z,42.2
2022-08-22T13:45:20.755Z,42.2
2022-08-22T13:47:17.048Z,42
2022-08-22T13:49:19.801Z,42
2022-08-22T13:51:22.244Z,42
2022-08-22T13:53:26.454Z,42.7
2022-08-22T13:55:23.328Z,42.7
2022-08-22T13:57:23.906Z,43
2022-08-22T13:59:49.702Z,43.4
2022-08-22T14:01:28.751Z,43.4
2022-08-22T14:03:24.571Z,43.4
2022-08-22T14:05:24.547Z,43.9
2022-08-22T14:07:29.630Z,43.8
2022-08-22T14:09:32.729Z,44.6
2022-08-22T14:11:29.717Z,44.6
2022-08-22T14:13:34.596Z,45.1
2022-08-22T14:15:25.905Z,45.1
2022-08-22T14:17:27.853Z,45.1
2022-08-22T14:19:30.672Z,45.1
2022-08-22T14:21:40.066Z,45.1
2022-08-22T14:23:27.711Z,45.7
2022-08-22T14:25:27.582Z,45.7
2022-08-22T14:27:29.890Z,46.5
2022-08-22T14:29:31.886Z,46.5
2022-08-22T14:31:28.246Z,46.5
2022-08-22T14:33:34.088Z,46.5
2022-08-22T14:35:35.245Z,47.1
2022-08-22T14:37:34.318Z,47.2
2022-08-22T14:39:34.889Z,47.2
2022-08-22T14:41:55.603Z,47.2
2022-08-22T14:43:49.595Z,47.2
2022-08-22T14:45:35.757Z,46.4
2022-08-22T14:47:55.344Z,47
2022-08-22T14:49:47.144Z,47
2022-08-22T14:51:32.739Z,47
2022-08-22T14:53:35.255Z,47
2022-08-22T14:55:34.302Z,47
2022-08-22T14:57:40.076Z,46.5
2022-08-22T14:59:43.256Z,46.2
2022-08-22T15:01:53.744Z,46.2
2022-08-22T15:03:36.512Z,46.2
2022-08-22T15:05:48.594Z,46.2
2022-08-22T15:07:37.592Z,46.4
2022-08-22T15:09:41.853Z,46.4
2022-08-22T15:11:42.235Z,45.5
2022-08-22T15:13:48.612Z,45.5
2022-08-22T15:15:53.386Z,46
2022-08-22T15:17:44.009Z,46
2022-08-22T15:19:45.915Z,46
2022-08-22T15:21:41.575Z,46
2022-08-22T15:23:45.076Z,46
2022-08-22T15:25:47.074Z,46
2022-08-22T15:27:48.811Z,46.2
2022-08-22T15:29:49.953Z,46.6
2022-08-22T15:31:46.585Z,46.6
2022-08-22T15:33:45.872Z,46.6
2022-08-22T15:35:45.759Z,46.6
2022-08-22T15:37:56.107Z,46.8
2022-08-22T15:40:07.464Z,46.8
2022-08-22T15:41:47.856Z,46.8
2022-08-22T15:43:48.917Z,46.8
2022-08-22T15:45:49.849Z,46.8
2022-08-22T15:47:50.376Z,47.1
2022-08-22T15:49:52.261Z,47.1
2022-08-22T15:52:04.876Z,47.1
2022-08-22T15:54:00.292Z,47.1
2022-08-22T15:56:21.021Z,46.5
2022-08-22T15:58:00.649Z,46.5
2022-08-22T15:59:55.670Z,46.5
2022-08-22T16:01:56.064Z,46.5
2022-08-22T16:03:56.707Z,46.5
2022-08-22T16:05:55.944Z,46.5
2022-08-22T16:08:03.114Z,47.3
2022-08-22T16:09:58.166Z,47.3
2022-08-22T16:11:56.690Z,47.3
2022-08-22T16:14:15.481Z,47.3
2022-08-22T16:16:00.360Z,47.4
2022-08-22T16:17:55.914Z,47.4
2022-08-22T16:20:25.732Z,47.4
2022-08-22T16:22:08.429Z,47.4
2022-08-22T16:24:26.689Z,48
2022-08-22T16:26:09.288Z,48.3
2022-08-22T16:27:58.589Z,48.3
2022-08-22T16:30:05.241Z,48.3
2022-08-22T16:32:06.071Z,48.3
2022-08-22T16:34:23.410Z,48.3
2022-08-22T16:36:37.982Z,48
2022-08-22T16:38:01.433Z,48
2022-08-22T16:40:14.473Z,48.7
2022-08-22T16:42:22.367Z,48.7
2022-08-22T16:44:20.827Z,48.7
2022-08-22T16:46:26.081Z,48.1
2022-08-22T16:48:22.747Z,48.1
2022-08-22T16:50:21.877Z,48.1
2022-08-22T16:52:34.185Z,48.6
2022-08-22T16:54:09.818Z,48.6
2022-08-22T16:56:21.832Z,48.2
2022-08-22T16:58:16.149Z,48.2
2022-08-22T17:00:24.444Z,48.2
2022-08-22T17:02:36.444Z,48.2
2022-08-22T17:04:19.527Z,48.2
2022-08-22T17:06:27.104Z,49.2
2022-08-22T17:08:24.882Z,49.2
2022-08-22T17:10:28.103Z,48.7
2022-08-22T17:12:23.338Z,48.7
2022-08-22T17:14:21.933Z,48.7
2022-08-22T17:16:23.025Z,48.8
2022-08-22T17:18:34.600Z,48.8
2022-08-22T17:20:22.770Z,48.8
2022-08-22T17:22:29.132Z,48.8
2022-08-22T17:24:32.298Z,48.8
2022-08-22T17:26:21.563Z,48.4
2022-08-22T17:28:19.658Z,48.4
2022-08-22T17:30:21.710Z,48.4
2022-08-22T17:32:21.242Z,48.4
2022-08-22T17:34:29.081Z,48.5
2022-08-22T17:36:26.497Z,48.3
2022-08-22T17:38:26.457Z,47.8
2022-08-22T17:40:29.976Z,47.8
2022-08-22T17:42:36.752Z,47.8
2022-08-22T17:44:26.367Z,48.4
2022-08-22T17:46:35.536Z,48
2022-08-22T17:48:23.459Z,48
2022-08-22T17:50:25.785Z,48
2022-08-22T17:52:27.217Z,48.9
2022-08-22T17:54:29.551Z,48.2
2022-08-22T17:56:25.526Z,48.2
2022-08-22T17:58:37.379Z,48.9
2022-08-22T18:00:27.734Z,48.9
2022-08-22T18:02:26.860Z,48.4
2022-08-22T18:04:30.889Z,48.4
2022-08-22T18:06:27.013Z,48.9
2022-08-22T18:09:13.443Z,48.9
2022-08-22T18:10:37.505Z,48.9
2022-08-22T18:12:34.196Z,49.5
2022-08-22T18:14:35.321Z,49.5
2022-08-22T18:16:30.247Z,49.3
2022-08-22T18:18:32.453Z,50.2
2022-08-22T18:20:33.742Z,49.3
2022-08-22T18:22:32.237Z,49.3
2022-08-22T18:24:34.397Z,48.8
2022-08-22T18:26:32.999Z,48.2
2022-08-22T18:28:34.733Z,47.6
2022-08-22T18:30:33.078Z,47.6
2022-08-22T18:32:35.411Z,47.6
2022-08-22T18:33:51.204Z,47.6
2022-08-22T18:34:02.535Z,47.6
2022-08-22T18:34:36.676Z,47.6
2022-08-22T18:36:34.076Z,47.8
2022-08-22T18:38:34.937Z,47.8
2022-08-22T18:40:47.923Z,47.8
2022-08-22T18:42:38.469Z,47.8
2022-08-22T18:44:35.579Z,47.8
2022-08-22T18:46:42.812Z,48.4
2022-08-22T18:48:54.302Z,49
2022-08-22T18:50:35.795Z,49
2022-08-22T18:52:37.404Z,49
2022-08-22T18:54:42.822Z,49.5
2022-08-22T18:56:46.739Z,49.5
2022-08-22T18:59:01.947Z,49.5
2022-08-22T19:00:53.536Z,49.5
2022-08-22T19:03:00.486Z,49.5
2022-08-22T19:04:59.050Z,50
2022-08-22T19:06:55.355Z,50.2
2022-08-22T19:09:02.737Z,50.2
2022-08-22T19:10:48.497Z,50.2
2022-08-22T19:12:59.002Z,50.6
2022-08-22T19:15:03.329Z,50.6
2022-08-22T19:17:04.866Z,50.7
2022-08-22T19:18:50.231Z,50.7
2022-08-22T19:20:40.662Z,51.2
2022-08-22T19:22:40.600Z,51.2
2022-08-22T19:25:08.920Z,51.2
2022-08-22T19:26:43.342Z,51.8
2022-08-22T19:28:41.770Z,51.8
2022-08-22T19:30:44.306Z,51.8
2022-08-22T19:33:02.068Z,51.8
2022-08-22T19:34:46.998Z,52.3
2022-08-22T19:36:45.009Z,52.4
2022-08-22T19:38:54.882Z,53
2022-08-22T19:40:55.001Z,53
2022-08-22T19:42:45.249Z,53.6
2022-08-22T19:44:47.139Z,53.6
2022-08-22T19:46:59.065Z,54.3
2022-08-22T19:48:48.596Z,54.3
2022-08-22T19:51:01.640Z,54.3
2022-08-22T19:53:03.641Z,55.1
2022-08-22T19:55:00.803Z,55.1
2022-08-22T19:57:04.413Z,55.1
2022-08-22T19:59:03.564Z,55.6
2022-08-22T20:00:55.358Z,55.6
2022-08-22T20:02:58.839Z,56.1
2022-08-22T20:05:11.794Z,56.1
2022-08-22T20:07:00.162Z,56.1
2022-08-22T20:09:02.831Z,56.1
2022-08-22T20:11:03.367Z,56.1
2022-08-22T20:13:02.149Z,56.1
2022-08-22T20:14:52.662Z,56.1
2022-08-22T20:17:10.215Z,56.7
2022-08-22T20:19:12.037Z,56.7
2022-08-22T20:20:58.249Z,56.7
2022-08-22T20:23:02.655Z,56.7
2022-08-22T20:24:57.364Z,56.7
2022-08-22T20:27:13.303Z,56.8
2022-08-22T20:28:55.539Z,57.4
2022-08-22T20:30:57.964Z,57.4
2022-08-22T20:33:04.648Z,57.9
2022-08-22T20:34:59.992Z,57.9
2022-08-22T20:37:22.668Z,58.2
2022-08-22T20:39:00.801Z,58.6
2022-08-22T20:41:11.815Z,58.6
2022-08-22T20:43:04.461Z,58.6
2022-08-22T20:44:59.873Z,58.6
2022-08-22T20:47:04.580Z,58.5
2022-08-22T20:49:00.693Z,58.5
2022-08-22T20:51:03.356Z,58.5
2022-08-22T20:53:19.943Z,58.5
2022-08-22T20:55:06.065Z,59.1
2022-08-22T20:57:10.551Z,59.7
2022-08-22T20:59:15.103Z,59.7
2022-08-22T21:01:02.519Z,60.3
2022-08-22T21:03:08.308Z,60.3
2022-08-22T21:05:06.601Z,60.9
2022-08-22T21:07:03.213Z,61
2022-08-22T21:09:13.994Z,61
2022-08-22T21:11:05.978Z,61.5
2022-08-22T21:13:08.687Z,61.5
2022-08-22T21:15:05.747Z,61.5
2022-08-22T21:17:23.287Z,61.8
2022-08-22T21:19:16.841Z,62.2
2022-08-22T21:21:10.501Z,62.2
2022-08-22T21:23:11.062Z,62.2
2022-08-22T21:25:08.360Z,62.2
2022-08-22T21:27:08.048Z,62.5
2022-08-22T21:29:20.752Z,62.9
2022-08-22T21:31:12.419Z,62.9
2022-08-22T21:33:14.175Z,62.9
2022-08-22T21:35:23.430Z,62.9
2022-08-22T21:37:15.937Z,62.8
2022-08-22T21:39:16.584Z,62.8
2022-08-22T21:41:13.434Z,62.8
2022-08-22T21:43:13.005Z,62.8
2022-08-22T21:45:26.822Z,62.3
2022-08-22T21:47:19.191Z,62.4
2022-08-22T21:49:20.582Z,62.4
2022-08-22T21:51:27.930Z,62.4
2022-08-22T21:53:26.461Z,62.4
2022-08-22T21:55:16.381Z,62.9
2022-08-22T21:57:17.683Z,62.6
2022-08-22T21:59:25.560Z,62.9
2022-08-22T22:01:31.582Z,63.5
2022-08-22T22:03:16.392Z,62.9
2022-08-22T22:05:17.418Z,62.9
2022-08-22T22:07:15.609Z,62.8
2022-08-22T22:09:16.151Z,62.8
2022-08-22T22:11:16.968Z,62.8
2022-08-22T22:13:19.446Z,63.5
2022-08-22T22:15:21.065Z,63.7
2022-08-22T22:17:19.009Z,63.4
2022-08-22T22:19:17.692Z,63.8
2022-08-22T22:21:18.281Z,62.9
2022-08-22T22:23:18.910Z,62.9
2022-08-22T22:25:39.624Z,63.6
2022-08-22T22:27:19.280Z,64.1
2022-08-22T22:29:19.706Z,64.1
2022-08-22T22:31:20.027Z,64.1
2022-08-22T22:33:25.058Z,64.9
2022-08-22T22:35:21.017Z,64.9
2022-08-22T22:37:21.311Z,65.3
2022-08-22T22:39:21.684Z,65.3
2022-08-22T22:41:22.142Z,65.5
2022-08-22T22:43:22.537Z,65.5
2022-08-22T22:45:22.845Z,65.5
2022-08-22T22:47:26.527Z,65.8
2022-08-22T22:49:24.069Z,65.8
2022-08-22T22:51:24.277Z,65.8
2022-08-22T22:53:28.579Z,66.1
2022-08-22T22:55:25.311Z,66.1
2022-08-22T22:57:25.851Z,66.3
2022-08-22T22:59:25.665Z,66.3
2022-08-22T23:01:26.193Z,66.3
2022-08-22T23:03:26.312Z,66.3
2022-08-22T23:05:26.983Z,66.3
2022-08-22T23:07:27.201Z,66.1
2022-08-22T23:09:32.414Z,65.6
2022-08-22T23:11:29.588Z,64.9
2022-08-22T23:13:28.192Z,64.9
2022-08-22T23:15:28.601Z,64.9
2022-08-22T23:17:29.142Z,65.6
2022-08-22T23:19:30.034Z,65.6
2022-08-22T23:21:29.928Z,65
2022-08-22T23:23:30.107Z,65
2022-08-22T23:25:30.800Z,64.4
2022-08-22T23:27:30.905Z,64.5
2022-08-22T23:29:31.450Z,64.5
2022-08-22T23:31:34.591Z,63.7
2022-08-22T23:33:33.039Z,64.2
2022-08-22T23:35:32.403Z,64.2
2022-08-22T23:37:33.066Z,64.2
2022-08-22T23:39:34.729Z,63.5
2022-08-22T23:41:33.935Z,63.5
2022-08-22T23:43:34.037Z,64
2022-08-22T23:45:34.244Z,65.1
2022-08-22T23:47:34.576Z,65.7
2022-08-22T23:49:37.080Z,65.7
2022-08-22T23:51:35.522Z,65.1
2022-08-22T23:53:36.493Z,65.1
2022-08-22T23:55:36.121Z,65.1
2022-08-22T23:57:36.513Z,65.1
2022-08-22T23:59:38.042Z,65.1
